createdAt,value
2018-11-05T00:00:37.855Z,117.37
2018-11-05T00:01:13.886Z,124.33
2018-11-05T00:01:49.483Z,116.08
2018-11-05T00:02:24.336Z,124.85
2018-11-05T00:03:00.015Z,106.32
2018-11-05T00:03:34.938Z,132.40
2018-11-05T00:04:09.878Z,140.90
2018-11-05T00:04:45.376Z,129.57
2018-11-05T00:05:21.255Z,139.97
2018-11-05T00:05:56.463Z,134.25
2018-11-05T00:06:31.975Z,131.52
2018-11-05T00:07:07.935Z,128.23
2018-11-05T00:07:43.257Z,118.20
2018-11-05T00:08:18.375Z,120.17
2018-11-05T00:08:53.516Z,141.53
2018-11-05T00:09:28.677Z,119.87
2018-11-05T00:10:03.863Z,138.80
2018-11-05T00:10:39.918Z,106.47
2018-11-05T00:11:14.976Z,127.35
2018-11-05T00:11:49.943Z,134.85
2018-11-05T00:12:25.376Z,122.02
2018-11-05T00:13:00.896Z,131.90
2018-11-05T00:13:36.996Z,121.15
2018-11-05T00:14:12.143Z,121.55
2018-11-05T00:14:47.235Z,123.02
2018-11-05T00:15:22.535Z,115.35
2018-11-05T00:15:58.115Z,130.57
2018-11-05T00:16:33.256Z,103.85
2018-11-05T00:17:08.277Z,97.88
2018-11-05T00:17:43.375Z,110.97
2018-11-05T00:18:18.275Z,108.40
2018-11-05T00:18:53.348Z,106.70
2018-11-05T00:19:28.615Z,108.00
2018-11-05T00:20:03.855Z,107.27
2018-11-05T00:20:38.895Z,108.03
2018-11-05T00:21:14.096Z,96.63
2018-11-05T00:21:48.976Z,103.27
2018-11-05T00:22:24.035Z,106.95
2018-11-05T00:22:58.995Z,99.65
2018-11-05T00:23:34.095Z,85.57
2018-11-05T00:24:09.455Z,95.32
2018-11-05T00:24:44.359Z,92.35
2018-11-05T00:25:19.356Z,99.72
2018-11-05T00:25:54.216Z,87.10
2018-11-05T00:26:29.464Z,89.25
2018-11-05T00:27:04.795Z,82.40
2018-11-05T00:27:40.015Z,78.35
2018-11-05T00:28:14.815Z,92.55
2018-11-05T00:28:49.839Z,89.15
2018-11-05T00:29:24.967Z,86.35
2018-11-05T00:30:00.164Z,83.00
2018-11-05T00:30:34.895Z,79.58
2018-11-05T00:31:10.035Z,88.35
2018-11-05T00:31:45.203Z,83.95
2018-11-05T00:32:20.095Z,78.92
2018-11-05T00:32:54.939Z,75.50
2018-11-05T00:33:29.795Z,78.52
2018-11-05T00:34:04.675Z,87.95
2018-11-05T00:34:39.558Z,95.92
2018-11-05T00:35:14.635Z,86.60
2018-11-05T00:35:49.575Z,108.67
2018-11-05T00:36:24.755Z,89.80
2018-11-05T00:36:59.915Z,88.85
2018-11-05T00:37:34.995Z,88.87
2018-11-05T00:38:10.235Z,88.82
2018-11-05T00:38:45.423Z,86.85
2018-11-05T00:39:20.418Z,88.65
2018-11-05T00:39:55.259Z,83.50
2018-11-05T00:40:30.256Z,90.20
2018-11-05T00:41:05.416Z,88.78
2018-11-05T00:41:40.476Z,88.25
2018-11-05T00:42:15.824Z,87.65
2018-11-05T00:42:50.857Z,88.90
2018-11-05T00:43:25.755Z,74.87
2018-11-05T00:44:00.644Z,76.05
2018-11-05T00:44:35.723Z,80.47
2018-11-05T00:45:11.816Z,73.10
2018-11-05T00:45:46.950Z,77.58
2018-11-05T00:46:22.176Z,87.22
2018-11-05T00:46:57.124Z,85.25
2018-11-05T00:47:32.015Z,79.35
2018-11-05T00:48:07.175Z,79.42
2018-11-05T00:48:42.325Z,86.82
2018-11-05T00:49:17.535Z,76.00
2018-11-05T00:49:53.636Z,92.97
2018-11-05T00:50:28.675Z,84.10
2018-11-05T00:51:03.535Z,79.97
2018-11-05T00:51:38.756Z,89.47
2018-11-05T00:52:13.755Z,85.42
2018-11-05T00:52:48.955Z,87.65
2018-11-05T00:53:24.117Z,80.92
2018-11-05T00:53:59.439Z,88.75
2018-11-05T00:54:34.437Z,73.42
2018-11-05T00:55:10.456Z,83.97
2018-11-05T00:55:45.483Z,84.37
2018-11-05T00:56:20.597Z,81.47
2018-11-05T00:56:55.675Z,89.52
2018-11-05T00:57:30.635Z,86.53
2018-11-05T00:58:05.823Z,84.07
2018-11-05T00:58:40.796Z,89.03
2018-11-05T00:59:16.096Z,84.85
2018-11-05T00:59:51.284Z,82.42
2018-11-05T01:00:26.356Z,93.67
2018-11-05T01:01:01.716Z,95.47
2018-11-05T01:01:37.230Z,89.65
2018-11-05T01:02:12.655Z,98.30
2018-11-05T01:02:47.863Z,96.42
2018-11-05T01:03:23.043Z,87.02
2018-11-05T01:03:58.635Z,90.10
2018-11-05T01:04:34.756Z,104.83
2018-11-05T01:05:11.915Z,100.78
2018-11-05T01:05:47.055Z,99.28
2018-11-05T01:06:22.316Z,98.75
2018-11-05T01:06:57.598Z,101.33
2018-11-05T01:07:32.755Z,100.80
2018-11-05T01:08:08.135Z,100.80
2018-11-05T01:08:43.296Z,101.50
2018-11-05T01:09:18.151Z,98.12
2018-11-05T01:09:53.135Z,103.67
2018-11-05T01:10:28.255Z,98.25
2018-11-05T01:11:03.163Z,109.72
2018-11-05T01:11:38.903Z,101.60
2018-11-05T01:12:13.635Z,103.62
2018-11-05T01:12:48.535Z,91.15
2018-11-05T01:13:23.516Z,96.65
2018-11-05T01:13:58.436Z,87.82
2018-11-05T01:14:33.291Z,79.27
2018-11-05T01:15:11.036Z,92.10
2018-11-05T01:15:46.795Z,90.30
2018-11-05T01:16:22.215Z,83.75
2018-11-05T01:16:57.136Z,90.97
2018-11-05T01:17:31.996Z,92.10
2018-11-05T01:18:06.936Z,88.00
2018-11-05T01:18:42.496Z,100.27
2018-11-05T01:19:17.935Z,94.80
2018-11-05T01:19:52.916Z,92.20
2018-11-05T01:20:29.196Z,90.03
2018-11-05T01:21:04.536Z,92.57
2018-11-05T01:21:40.144Z,83.58
2018-11-05T01:22:15.216Z,91.45
2018-11-05T01:22:50.303Z,92.35
2018-11-05T01:23:25.624Z,101.47
2018-11-05T01:24:00.677Z,89.50
2018-11-05T01:24:35.803Z,93.40
2018-11-05T01:25:10.524Z,89.92
2018-11-05T01:25:45.438Z,83.78
2018-11-05T01:26:20.295Z,89.25
2018-11-05T01:26:55.177Z,82.40
2018-11-05T01:27:29.956Z,80.53
2018-11-05T01:28:04.655Z,69.37
2018-11-05T01:28:39.519Z,83.52
2018-11-05T01:29:14.443Z,84.62
2018-11-05T01:29:49.316Z,69.95
2018-11-05T01:30:24.115Z,75.05
2018-11-05T01:30:58.956Z,81.53
2018-11-05T01:31:33.677Z,91.35
2018-11-05T01:32:08.697Z,80.80
2018-11-05T01:32:43.616Z,82.08
2018-11-05T01:33:18.715Z,84.70
2018-11-05T01:33:54.323Z,91.55
2018-11-05T01:34:29.624Z,88.60
2018-11-05T01:35:05.435Z,96.42
2018-11-05T01:35:40.744Z,104.03
2018-11-05T01:36:16.014Z,88.45
2018-11-05T01:36:51.353Z,88.90
2018-11-05T01:37:26.642Z,81.32
2018-11-05T01:38:02.035Z,78.22
2018-11-05T01:38:37.396Z,73.95
2018-11-05T01:39:12.856Z,85.83
2018-11-05T01:39:48.136Z,72.53
2018-11-05T01:40:23.455Z,78.02
2018-11-05T01:40:58.815Z,80.28
2018-11-05T01:41:34.335Z,74.05
2018-11-05T01:42:09.597Z,71.85
2018-11-05T01:42:45.136Z,75.03
2018-11-05T01:43:20.556Z,70.78
2018-11-05T01:43:55.976Z,74.35
2018-11-05T01:44:30.936Z,70.30
2018-11-05T01:45:06.936Z,78.25
2018-11-05T01:45:42.196Z,71.22
2018-11-05T01:46:17.518Z,73.92
2018-11-05T01:46:52.897Z,73.15
2018-11-05T01:47:28.178Z,72.72
2018-11-05T01:48:03.958Z,74.75
2018-11-05T01:48:39.438Z,77.92
2018-11-05T01:49:14.657Z,67.22
2018-11-05T01:49:49.996Z,70.57
2018-11-05T01:50:25.038Z,66.90
2018-11-05T01:51:00.195Z,83.80
2018-11-05T01:51:35.415Z,81.42
2018-11-05T01:52:10.454Z,76.90
2018-11-05T01:52:45.896Z,77.87
2018-11-05T01:53:20.915Z,77.95
2018-11-05T01:53:55.755Z,80.50
2018-11-05T01:54:31.094Z,87.92
2018-11-05T01:55:06.915Z,88.47
2018-11-05T01:55:42.283Z,87.37
2018-11-05T01:56:17.575Z,82.88
2018-11-05T01:56:52.695Z,82.67
2018-11-05T01:57:28.188Z,80.28
2018-11-05T01:58:03.196Z,86.37
2018-11-05T01:58:38.295Z,76.15
2018-11-05T01:59:13.275Z,82.00
2018-11-05T01:59:48.683Z,83.75
2018-11-05T02:00:24.023Z,76.92
2018-11-05T02:00:59.056Z,90.10
2018-11-05T02:01:33.943Z,78.78
2018-11-05T02:02:09.022Z,87.15
2018-11-05T02:02:44.498Z,78.65
2018-11-05T02:03:19.475Z,85.83
2018-11-05T02:03:54.674Z,76.90
2018-11-05T02:04:29.962Z,91.32
2018-11-05T02:05:05.076Z,84.72
2018-11-05T02:05:40.223Z,81.50
2018-11-05T02:06:15.116Z,76.95
2018-11-05T02:06:50.594Z,85.90
2018-11-05T02:07:26.478Z,82.37
2018-11-05T02:08:01.256Z,92.47
2018-11-05T02:08:36.766Z,86.78
2018-11-05T02:09:11.931Z,88.37
2018-11-05T02:09:46.935Z,92.27
2018-11-05T02:10:22.274Z,73.85
2018-11-05T02:10:57.155Z,85.95
2018-11-05T02:11:32.056Z,89.92
2018-11-05T02:12:07.595Z,84.45
2018-11-05T02:12:43.496Z,83.07
2018-11-05T02:13:18.815Z,75.80
2018-11-05T02:13:53.864Z,78.47
2018-11-05T02:14:28.875Z,77.95
2018-11-05T02:15:04.196Z,88.60
2018-11-05T02:15:40.325Z,78.45
2018-11-05T02:16:15.064Z,83.25
2018-11-05T02:16:50.674Z,93.00
2018-11-05T02:17:25.733Z,76.55
2018-11-05T02:18:00.836Z,79.07
2018-11-05T02:18:36.063Z,92.57
2018-11-05T02:19:11.115Z,93.90
2018-11-05T02:19:46.183Z,81.92
2018-11-05T02:20:21.355Z,80.92
2018-11-05T02:20:56.416Z,90.92
2018-11-05T02:21:31.316Z,85.53
2018-11-05T02:22:06.596Z,86.90
2018-11-05T02:22:41.796Z,93.27
2018-11-05T02:23:16.996Z,90.10
2018-11-05T02:23:52.336Z,84.40
2018-11-05T02:24:27.799Z,77.53
2018-11-05T02:25:03.215Z,73.33
2018-11-05T02:25:38.356Z,75.30
2018-11-05T02:26:13.522Z,72.55
2018-11-05T02:26:48.473Z,72.87
2018-11-05T02:27:23.780Z,78.35
2018-11-05T02:27:58.843Z,62.45
2018-11-05T02:28:33.895Z,74.85
2018-11-05T02:29:08.915Z,64.60
2018-11-05T02:29:44.079Z,66.20
2018-11-05T02:30:19.736Z,65.62
2018-11-05T02:30:54.737Z,67.95
2018-11-05T02:31:29.785Z,58.17
2018-11-05T02:32:05.203Z,68.72
2018-11-05T02:32:40.223Z,60.12
2018-11-05T02:33:15.196Z,65.67
2018-11-05T02:33:50.172Z,66.07
2018-11-05T02:34:25.296Z,63.42
2018-11-05T02:35:00.419Z,65.32
2018-11-05T02:35:35.683Z,68.85
2018-11-05T02:36:10.975Z,68.42
2018-11-05T02:36:45.856Z,71.20
2018-11-05T02:37:20.914Z,71.70
2018-11-05T02:37:55.875Z,62.05
2018-11-05T02:38:30.896Z,66.85
2018-11-05T02:39:07.455Z,66.55
2018-11-05T02:39:42.316Z,71.62
2018-11-05T02:40:18.437Z,74.27
2018-11-05T02:40:53.275Z,71.55
2018-11-05T02:41:28.219Z,70.62
2018-11-05T02:42:03.356Z,75.03
2018-11-05T02:42:38.411Z,68.85
2018-11-05T02:43:13.296Z,61.18
2018-11-05T02:43:48.289Z,59.18
2018-11-05T02:44:23.337Z,70.52
2018-11-05T02:44:58.516Z,64.10
2018-11-05T02:45:33.334Z,63.33
2018-11-05T02:46:08.278Z,60.23
2018-11-05T02:46:43.076Z,56.13
2018-11-05T02:47:17.903Z,54.35
2018-11-05T02:47:52.857Z,55.05
2018-11-05T02:48:27.676Z,60.78
2018-11-05T02:49:02.476Z,55.63
2018-11-05T02:49:37.183Z,54.80
2018-11-05T02:50:12.816Z,57.60
2018-11-05T02:50:47.697Z,62.43
2018-11-05T02:51:22.463Z,53.70
2018-11-05T02:51:57.579Z,56.95
2018-11-05T02:52:33.256Z,56.05
2018-11-05T02:53:08.058Z,53.30
2018-11-05T02:53:42.817Z,57.50
2018-11-05T02:54:17.716Z,57.85
2018-11-05T02:54:52.696Z,71.00
2018-11-05T02:55:27.596Z,56.40
2018-11-05T02:56:02.565Z,50.90
2018-11-05T02:56:37.336Z,53.17
2018-11-05T02:57:12.216Z,50.40
2018-11-05T02:57:47.284Z,55.55
2018-11-05T02:58:22.596Z,54.90
2018-11-05T02:58:57.835Z,63.17
2018-11-05T02:59:33.016Z,67.30
2018-11-05T03:00:11.054Z,57.88
2018-11-05T03:00:45.696Z,60.78
2018-11-05T03:01:20.716Z,67.15
2018-11-05T03:01:55.715Z,61.13
2018-11-05T03:02:31.096Z,56.80
2018-11-05T03:03:06.153Z,57.88
2018-11-05T03:03:41.105Z,60.43
2018-11-05T03:04:15.876Z,55.85
2018-11-05T03:04:51.116Z,57.13
2018-11-05T03:05:26.475Z,58.45
2018-11-05T03:06:01.502Z,47.95
2018-11-05T03:06:36.496Z,54.15
2018-11-05T03:07:11.536Z,55.63
2018-11-05T03:07:47.234Z,56.20
2018-11-05T03:08:22.814Z,63.75
2018-11-05T03:08:58.136Z,56.00
2018-11-05T03:09:33.196Z,55.30
2018-11-05T03:10:08.736Z,58.65
2018-11-05T03:10:43.937Z,52.78
2018-11-05T03:11:18.903Z,65.92
2018-11-05T03:11:54.015Z,65.00
2018-11-05T03:12:29.135Z,60.95
2018-11-05T03:13:04.176Z,73.52
2018-11-05T03:13:39.414Z,71.55
2018-11-05T03:14:14.436Z,64.77
2018-11-05T03:14:49.576Z,76.50
2018-11-05T03:15:24.557Z,71.40
2018-11-05T03:15:59.276Z,80.70
2018-11-05T03:16:34.335Z,75.17
2018-11-05T03:17:09.366Z,72.92
2018-11-05T03:17:44.395Z,71.53
2018-11-05T03:18:19.618Z,68.87
2018-11-05T03:18:54.723Z,76.87
2018-11-05T03:19:29.876Z,79.10
2018-11-05T03:20:05.216Z,74.30
2018-11-05T03:20:40.276Z,87.45
2018-11-05T03:21:15.336Z,102.80
2018-11-05T03:21:50.350Z,68.07
2018-11-05T03:22:25.643Z,64.87
2018-11-05T03:23:00.718Z,71.37
2018-11-05T03:23:36.474Z,69.65
2018-11-05T03:24:11.515Z,65.52
2018-11-05T03:24:46.256Z,59.98
2018-11-05T03:25:21.703Z,61.68
2018-11-05T03:25:56.876Z,57.67
2018-11-05T03:26:32.276Z,60.55
2018-11-05T03:27:07.516Z,58.68
2018-11-05T03:27:42.755Z,56.68
2018-11-05T03:28:17.736Z,56.37
2018-11-05T03:28:52.776Z,62.17
2018-11-05T03:29:27.677Z,59.80
2018-11-05T03:30:02.526Z,55.55
2018-11-05T03:30:37.584Z,64.70
2018-11-05T03:31:12.516Z,61.28
2018-11-05T03:31:47.615Z,59.60
2018-11-05T03:32:22.496Z,59.38
2018-11-05T03:32:57.616Z,57.25
2018-11-05T03:33:32.744Z,64.42
2018-11-05T03:34:07.797Z,62.65
2018-11-05T03:34:42.676Z,59.75
2018-11-05T03:35:17.844Z,58.33
2018-11-05T03:35:53.028Z,63.58
2018-11-05T03:36:28.224Z,69.12
2018-11-05T03:37:03.084Z,69.10
2018-11-05T03:37:38.236Z,68.37
2018-11-05T03:38:13.318Z,63.30
2018-11-05T03:38:48.357Z,65.40
2018-11-05T03:39:23.396Z,64.72
2018-11-05T03:39:58.336Z,61.10
2018-11-05T03:40:33.396Z,61.45
2018-11-05T03:41:08.476Z,60.38
2018-11-05T03:41:43.716Z,67.37
2018-11-05T03:42:18.868Z,61.48
2018-11-05T03:42:54.096Z,62.73
2018-11-05T03:43:29.164Z,69.77
2018-11-05T03:44:04.395Z,58.65
2018-11-05T03:44:39.379Z,71.82
2018-11-05T03:45:16.455Z,70.28
2018-11-05T03:45:51.517Z,80.60
2018-11-05T03:46:26.859Z,66.82
2018-11-05T03:47:01.657Z,68.75
2018-11-05T03:47:37.124Z,78.62
2018-11-05T03:48:12.137Z,79.50
2018-11-05T03:48:47.084Z,87.30
2018-11-05T03:49:22.367Z,81.67
2018-11-05T03:49:57.540Z,75.92
2018-11-05T03:50:32.296Z,76.47
2018-11-05T03:51:07.216Z,77.50
2018-11-05T03:51:42.143Z,80.07
2018-11-05T03:52:17.257Z,82.70
2018-11-05T03:52:52.616Z,78.90
2018-11-05T03:53:27.443Z,83.42
2018-11-05T03:54:02.224Z,80.28
2018-11-05T03:54:37.064Z,73.28
2018-11-05T03:55:12.156Z,85.67
2018-11-05T03:55:47.226Z,63.17
2018-11-05T03:56:22.264Z,75.72
2018-11-05T03:56:57.336Z,69.07
2018-11-05T03:57:32.115Z,71.62
2018-11-05T03:58:07.297Z,82.20
2018-11-05T03:58:42.177Z,78.57
2018-11-05T03:59:17.356Z,82.97
2018-11-05T03:59:52.560Z,82.72
2018-11-05T04:00:27.777Z,73.52
2018-11-05T04:01:03.056Z,76.72
2018-11-05T04:01:38.036Z,72.87
2018-11-05T04:02:13.357Z,66.95
2018-11-05T04:02:48.424Z,72.92
2018-11-05T04:03:23.569Z,69.58
2018-11-05T04:03:58.598Z,87.22
2018-11-05T04:04:33.955Z,66.00
2018-11-05T04:05:09.477Z,62.10
2018-11-05T04:05:44.475Z,86.92
2018-11-05T04:06:19.568Z,97.02
2018-11-05T04:06:54.678Z,87.75
2018-11-05T04:07:29.655Z,91.55
2018-11-05T04:08:04.618Z,82.55
2018-11-05T04:08:39.716Z,90.25
2018-11-05T04:09:15.424Z,78.67
2018-11-05T04:09:50.604Z,93.37
2018-11-05T04:10:25.818Z,91.30
2018-11-05T04:11:00.956Z,94.00
2018-11-05T04:11:36.136Z,91.78
2018-11-05T04:12:11.063Z,87.20
2018-11-05T04:12:45.901Z,77.87
2018-11-05T04:13:21.018Z,81.17
2018-11-05T04:13:55.935Z,73.07
2018-11-05T04:14:30.756Z,77.50
2018-11-05T04:15:05.836Z,81.63
2018-11-05T04:15:41.193Z,80.22
2018-11-05T04:16:16.056Z,83.07
2018-11-05T04:16:50.898Z,86.65
2018-11-05T04:17:25.816Z,86.87
2018-11-05T04:18:00.716Z,108.75
2018-11-05T04:18:35.544Z,109.32
2018-11-05T04:19:10.283Z,105.67
2018-11-05T04:19:45.136Z,102.07
2018-11-05T04:20:20.217Z,82.80
2018-11-05T04:20:54.963Z,105.37
2018-11-05T04:21:47.360Z,101.65
2018-11-05T04:22:22.523Z,80.90
2018-11-05T04:22:57.356Z,84.07
2018-11-05T04:23:32.243Z,93.03
2018-11-05T04:24:07.595Z,96.17
2018-11-05T04:24:42.476Z,88.22
2018-11-05T04:25:17.463Z,85.25
2018-11-05T04:25:52.239Z,91.17
2018-11-05T04:26:27.016Z,109.65
2018-11-05T04:27:01.876Z,127.85
2018-11-05T04:27:37.008Z,119.20
2018-11-05T04:28:11.896Z,106.15
2018-11-05T04:28:47.035Z,101.67
2018-11-05T04:29:21.868Z,92.17
2018-11-05T04:29:56.516Z,86.78
2018-11-05T04:30:31.616Z,91.85
2018-11-05T04:31:06.875Z,100.27
2018-11-05T04:31:42.296Z,106.40
2018-11-05T04:32:17.436Z,94.45
2018-11-05T04:32:52.396Z,105.37
2018-11-05T04:33:27.438Z,96.47
2018-11-05T04:34:02.243Z,103.53
2018-11-05T04:34:37.024Z,116.03
2018-11-05T04:35:12.615Z,112.12
2018-11-05T04:35:47.977Z,104.40
2018-11-05T04:36:22.997Z,92.10
2018-11-05T04:36:58.136Z,97.08
2018-11-05T04:37:33.324Z,94.13
2018-11-05T04:38:08.503Z,103.53
2018-11-05T04:38:43.495Z,106.10
2018-11-05T04:39:28.892Z,88.22
2018-11-05T04:40:04.197Z,109.92
2018-11-05T04:40:39.083Z,123.38
2018-11-05T04:41:13.996Z,121.60
2018-11-05T04:41:48.716Z,154.93
2018-11-05T04:42:23.776Z,130.52
2018-11-05T04:42:58.654Z,137.80
2018-11-05T04:43:34.144Z,145.43
2018-11-05T04:44:09.276Z,109.48
2018-11-05T04:44:44.043Z,128.27
2018-11-05T04:45:19.084Z,113.83
2018-11-05T04:45:59.776Z,130.03
2018-11-05T04:46:34.877Z,84.28
2018-11-05T04:47:09.696Z,116.75
2018-11-05T04:47:44.784Z,145.45
2018-11-05T04:48:19.705Z,133.35
2018-11-05T04:48:54.738Z,132.72
2018-11-05T04:49:29.663Z,148.90
2018-11-05T04:50:05.084Z,148.53
2018-11-05T04:50:42.897Z,151.80
2018-11-05T04:51:17.947Z,139.30
2018-11-05T04:51:52.863Z,111.70
2018-11-05T04:52:28.139Z,114.80
2018-11-05T04:53:03.016Z,123.67
2018-11-05T04:53:37.996Z,137.00
2018-11-05T04:54:13.296Z,148.05
2018-11-05T04:54:48.203Z,132.07
2018-11-05T04:55:23.156Z,105.78
2018-11-05T04:55:57.917Z,90.07
2018-11-05T04:56:33.583Z,91.67
2018-11-05T04:57:08.777Z,145.20
2018-11-05T04:57:44.037Z,168.52
2018-11-05T04:58:19.576Z,137.18
2018-11-05T04:58:54.616Z,114.42
2018-11-05T04:59:29.983Z,135.63
2018-11-05T05:00:11.935Z,145.15
2018-11-05T05:00:46.904Z,120.00
2018-11-05T05:01:21.957Z,116.70
2018-11-05T05:01:56.957Z,122.72
2018-11-05T05:02:32.063Z,163.07
2018-11-05T05:03:07.269Z,180.12
2018-11-05T05:03:42.764Z,165.18
2018-11-05T05:04:18.017Z,146.30
2018-11-05T05:04:53.164Z,145.60
2018-11-05T05:05:28.176Z,164.72
2018-11-05T05:06:03.138Z,158.05
2018-11-05T05:06:38.483Z,121.33
2018-11-05T05:07:13.737Z,166.37
2018-11-05T05:07:49.156Z,200.78
2018-11-05T05:08:24.657Z,130.35
2018-11-05T05:08:59.723Z,215.55
2018-11-05T05:09:34.836Z,220.88
2018-11-05T05:10:10.643Z,135.52
2018-11-05T05:10:45.536Z,149.00
2018-11-05T05:11:20.616Z,170.82
2018-11-05T05:11:55.498Z,102.62
2018-11-05T05:12:30.676Z,242.55
2018-11-05T05:13:05.744Z,177.02
2018-11-05T05:13:40.736Z,265.32
2018-11-05T05:14:15.676Z,235.20
2018-11-05T05:14:50.539Z,236.55
2018-11-05T05:15:25.356Z,177.53
2018-11-05T05:16:00.197Z,253.45
2018-11-05T05:16:35.195Z,239.20
2018-11-05T05:17:10.696Z,237.82
2018-11-05T05:17:45.887Z,190.85
2018-11-05T05:18:21.015Z,241.78
2018-11-05T05:18:56.583Z,258.87
2018-11-05T05:19:32.116Z,172.95
2018-11-05T05:20:09.836Z,194.60
2018-11-05T05:20:45.056Z,170.77
2018-11-05T05:21:19.903Z,205.03
2018-11-05T05:21:55.235Z,187.77
2018-11-05T05:22:30.775Z,272.27
2018-11-05T05:23:06.363Z,215.57
2018-11-05T05:23:40.875Z,263.90
2018-11-05T05:24:15.935Z,206.82
2018-11-05T05:24:51.035Z,180.63
2018-11-05T05:25:26.055Z,231.15
2018-11-05T05:26:00.944Z,245.65
2018-11-05T05:26:35.775Z,193.82
2018-11-05T05:27:10.763Z,308.98
2018-11-05T05:27:45.717Z,377.62
2018-11-05T05:28:20.877Z,318.50
2018-11-05T05:28:55.835Z,357.07
2018-11-05T05:29:30.875Z,354.77
2018-11-05T05:30:08.224Z,367.18
2018-11-05T05:30:43.115Z,282.43
2018-11-05T05:31:18.078Z,265.02
2018-11-05T05:31:53.156Z,260.32
2018-11-05T05:32:28.024Z,266.90
2018-11-05T05:33:03.043Z,324.75
2018-11-05T05:33:37.981Z,264.42
2018-11-05T05:34:13.276Z,280.83
2018-11-05T05:34:48.303Z,223.20
2018-11-05T05:35:23.215Z,277.07
2018-11-05T05:35:57.855Z,233.28
2018-11-05T05:36:32.636Z,246.68
2018-11-05T05:37:07.583Z,294.50
2018-11-05T05:37:43.255Z,325.50
2018-11-05T05:38:18.125Z,305.75
2018-11-05T05:38:53.015Z,343.75
2018-11-05T05:39:27.936Z,281.57
2018-11-05T05:40:02.843Z,286.52
2018-11-05T05:40:37.926Z,303.60
2018-11-05T05:41:13.000Z,319.77
2018-11-05T05:41:47.536Z,276.42
2018-11-05T05:42:22.255Z,354.70
2018-11-05T05:42:57.183Z,229.15
2018-11-05T05:43:32.163Z,305.05
2018-11-05T05:44:07.195Z,350.73
2018-11-05T05:44:42.135Z,320.82
2018-11-05T05:45:16.774Z,373.07
2018-11-05T05:45:51.536Z,344.62
2018-11-05T05:46:26.195Z,288.62
2018-11-05T05:47:00.915Z,293.65
2018-11-05T05:47:35.455Z,282.23
2018-11-05T05:48:09.925Z,271.35
2018-11-05T05:48:44.819Z,283.98
2018-11-05T05:49:19.556Z,291.23
2018-11-05T05:49:54.206Z,270.75
2018-11-05T05:50:29.242Z,258.07
2018-11-05T05:51:04.295Z,285.60
2018-11-05T05:51:39.116Z,285.07
2018-11-05T05:52:13.736Z,280.15
2018-11-05T05:52:49.757Z,258.75
2018-11-05T05:53:24.636Z,244.72
2018-11-05T05:53:59.616Z,264.72
2018-11-05T05:54:34.436Z,265.35
2018-11-05T05:55:09.863Z,265.10
2018-11-05T05:55:44.877Z,260.27
2018-11-05T05:56:19.797Z,248.85
2018-11-05T05:56:54.582Z,265.07
2018-11-05T05:57:29.576Z,259.27
2018-11-05T05:58:04.475Z,244.68
2018-11-05T05:58:39.134Z,275.48
2018-11-05T05:59:14.336Z,312.98
2018-11-05T05:59:49.236Z,291.88
2018-11-05T06:00:24.316Z,262.27
2018-11-05T06:00:59.364Z,230.57
2018-11-05T06:01:34.535Z,235.63
2018-11-05T06:02:09.696Z,304.00
2018-11-05T06:02:44.803Z,345.25
2018-11-05T06:03:19.894Z,289.25
2018-11-05T06:03:54.675Z,254.23
2018-11-05T06:04:29.656Z,273.38
2018-11-05T06:05:04.817Z,295.07
2018-11-05T06:05:39.675Z,280.15
2018-11-05T06:06:14.769Z,280.35
2018-11-05T06:06:49.615Z,265.73
2018-11-05T06:07:24.636Z,213.50
2018-11-05T06:07:59.436Z,242.43
2018-11-05T06:08:34.155Z,255.55
2018-11-05T06:09:10.529Z,257.60
2018-11-05T06:09:45.355Z,257.52
2018-11-05T06:10:20.235Z,252.72
2018-11-05T06:10:55.095Z,291.25
2018-11-05T06:11:29.995Z,232.90
2018-11-05T06:12:04.955Z,207.98
2018-11-05T06:12:40.116Z,248.62
2018-11-05T06:13:15.368Z,281.38
2018-11-05T06:13:50.385Z,219.30
2018-11-05T06:14:25.464Z,288.48
2018-11-05T06:15:00.482Z,245.60
2018-11-05T06:15:35.939Z,271.05
2018-11-05T06:16:11.183Z,291.25
2018-11-05T06:16:45.935Z,309.62
2018-11-05T06:17:21.015Z,234.43
2018-11-05T06:17:55.955Z,218.63
2018-11-05T06:18:30.819Z,278.50
2018-11-05T06:19:05.997Z,239.25
2018-11-05T06:19:40.895Z,256.73
2018-11-05T06:20:18.655Z,253.25
2018-11-05T06:20:53.735Z,275.87
2018-11-05T06:21:28.643Z,232.05
2018-11-05T06:22:03.595Z,268.63
2018-11-05T06:22:38.508Z,232.52
2018-11-05T06:23:13.455Z,218.85
2018-11-05T06:23:48.595Z,184.60
2018-11-05T06:24:23.496Z,191.03
2018-11-05T06:24:58.916Z,206.72
2018-11-05T06:25:33.795Z,227.90
2018-11-05T06:26:08.676Z,173.20
2018-11-05T06:26:43.556Z,205.15
2018-11-05T06:27:18.495Z,224.18
2018-11-05T06:27:53.516Z,192.25
2018-11-05T06:28:28.537Z,270.55
2018-11-05T06:29:03.377Z,279.68
2018-11-05T06:29:38.336Z,204.93
2018-11-05T06:30:16.163Z,219.65
2018-11-05T06:31:54.104Z,289.82
2018-11-05T06:32:28.836Z,149.27
2018-11-05T06:33:03.677Z,178.93
2018-11-05T06:33:38.664Z,192.13
2018-11-05T06:34:13.756Z,177.22
2018-11-05T06:34:48.757Z,175.75
2018-11-05T06:35:23.707Z,142.80
2018-11-05T06:35:58.684Z,131.00
2018-11-05T06:36:33.595Z,138.32
2018-11-05T06:37:08.456Z,148.22
2018-11-05T06:37:43.316Z,151.97
2018-11-05T06:38:18.636Z,160.97
2018-11-05T06:38:53.475Z,143.28
2018-11-05T06:39:28.316Z,129.32
2018-11-05T06:40:03.297Z,135.55
2018-11-05T06:40:38.177Z,144.00
2018-11-05T06:41:13.072Z,124.55
2018-11-05T06:41:48.028Z,127.58
2018-11-05T06:42:23.017Z,126.07
2018-11-05T06:42:57.936Z,128.15
2018-11-05T06:43:32.836Z,122.47
2018-11-05T06:44:07.705Z,113.40
2018-11-05T06:44:43.079Z,125.70
2018-11-05T06:45:19.267Z,131.10
2018-11-05T06:45:54.058Z,122.55
2018-11-05T06:46:28.956Z,137.57
2018-11-05T06:47:03.836Z,152.70
2018-11-05T06:47:39.796Z,126.30
2018-11-05T06:48:14.637Z,111.17
2018-11-05T06:48:49.579Z,111.90
2018-11-05T06:49:24.576Z,117.87
2018-11-05T06:49:59.684Z,114.40
2018-11-05T06:50:34.537Z,104.80
2018-11-05T06:51:09.436Z,129.85
2018-11-05T06:51:44.377Z,119.10
2018-11-05T06:52:19.415Z,129.75
2018-11-05T06:52:54.412Z,119.42
2018-11-05T06:53:29.398Z,116.20
2018-11-05T06:54:05.277Z,120.20
2018-11-05T06:54:40.195Z,98.87
2018-11-05T06:55:15.615Z,110.57
2018-11-05T06:55:50.655Z,129.35
2018-11-05T06:56:25.616Z,127.02
2018-11-05T06:57:00.595Z,145.60
2018-11-05T06:57:35.480Z,106.05
2018-11-05T06:58:10.736Z,129.80
2018-11-05T06:58:45.616Z,107.10
2018-11-05T06:59:20.344Z,98.85
2018-11-05T06:59:56.212Z,89.95
2018-11-05T07:00:31.435Z,82.37
2018-11-05T07:01:06.678Z,80.65
2018-11-05T07:01:41.615Z,113.68
2018-11-05T07:02:16.558Z,109.57
2018-11-05T07:02:51.535Z,119.95
2018-11-05T07:03:26.403Z,126.97
2018-11-05T07:04:01.079Z,140.32
2018-11-05T07:04:35.855Z,158.97
2018-11-05T07:05:10.883Z,153.15
2018-11-05T07:05:45.866Z,141.60
2018-11-05T07:06:20.757Z,197.45
2018-11-05T07:06:55.775Z,152.75
2018-11-05T07:07:30.483Z,206.02
2018-11-05T07:08:05.416Z,155.87
2018-11-05T07:08:40.744Z,144.77
2018-11-05T07:09:15.635Z,142.62
2018-11-05T07:09:50.540Z,183.93
2018-11-05T07:10:25.310Z,140.30
2018-11-05T07:11:00.256Z,141.32
2018-11-05T07:11:35.163Z,153.65
2018-11-05T07:12:10.155Z,143.47
2018-11-05T07:12:45.485Z,175.45
2018-11-05T07:13:20.359Z,169.32
2018-11-05T07:13:55.195Z,151.50
2018-11-05T07:14:30.000Z,157.45
2018-11-05T07:15:04.895Z,187.45
2018-11-05T07:15:39.575Z,143.43
2018-11-05T07:17:17.736Z,176.63
2018-11-05T07:17:52.636Z,203.50
2018-11-05T07:18:27.679Z,181.90
2018-11-05T07:19:02.878Z,194.75
2018-11-05T07:19:37.695Z,191.65
2018-11-05T07:20:22.042Z,178.78
2018-11-05T07:20:57.036Z,125.30
2018-11-05T07:21:32.263Z,150.30
2018-11-05T07:22:07.163Z,200.03
2018-11-05T07:22:41.875Z,185.55
2018-11-05T07:23:16.515Z,169.47
2018-11-05T07:23:51.375Z,133.40
2018-11-05T07:24:26.116Z,118.22
2018-11-05T07:25:01.239Z,101.75
2018-11-05T07:25:36.081Z,125.00
2018-11-05T07:26:11.139Z,117.37
2018-11-05T07:26:46.098Z,88.82
2018-11-05T07:27:21.376Z,105.43
2018-11-05T07:27:56.564Z,88.67
2018-11-05T07:28:31.335Z,127.55
2018-11-05T07:29:06.376Z,150.75